PWSweather.com
Personal Weather Stations
Station Observations
KJ4AJP
Beautiful Downtown Gardner, Martin, TN 38237

Beautiful Downtown GardnerMartin, TN 38237

Lat: 36.358, Lon: -88.8994

Elevation: 384.3

Station Type: TP1080WC

http://weather.mambm.com/

High Low Average
Temperature 60.3°F15.7°C 40.1°F4.5°C 49.7°F9.8°C
Dew Point 54.7°F12.6°C 39.8°F4.3°C 48.5°F9.2°C
Winds 7.6 mph 12.2 kmh Calm Calm 3.0 mph SE4.8 kmh SE
Wind Gusts 17.4 mph28.0 kmh 4.5 mph7.2 kmh 11.0 mph17.7 kmh
Humidity 99% 81% 96%
Pressure 30.15 in1021.0 mb 29.96 in1014.6 mb -
Precipitation 0.15 in3.8 mm - -
Hour Temp Dew Point Humidity Winds Wind Gusts Pressure Precip Precip Rate Daily Precip Total
12:00 AM 60.3°F15.7°C 53.0°F11.7°C 77% 0.7 mph SE1.1 kmh SE 1.6 mph2.6 kmh 30.04 in1017.3 mb 0.00 in0.0 mm 0.00 in0.0 mm 0.00 in0.0 mm
12:15 AM 59.9°F15.5°C 52.7°F11.5°C 77% Calm Calm 1.6 mph2.6 kmh 30.04 in1017.3 mb 0.00 in0.0 mm 0.00 in0.0 mm 0.00 in0.0 mm
12:30 AM 60.1°F15.6°C 53.6°F12.0°C 79% 0.7 mph NW1.1 kmh NW 6.0 mph9.7 kmh 30.06 in1017.9 mb 0.00 in0.0 mm 0.00 in0.0 mm 0.00 in0.0 mm
12:45 AM 60.1°F15.6°C 53.9°F12.2°C 80% 3.8 mph NNW6.1 kmh NNW 8.3 mph13.4 kmh 30.06 in1017.9 mb 0.00 in0.0 mm 0.00 in0.0 mm 0.00 in0.0 mm
01:00 AM 60.3°F15.7°C 54.4°F12.4°C 81% 2.2 mph NNW3.5 kmh NNW 8.3 mph13.4 kmh 30.07 in1018.3 mb 0.00 in0.0 mm 0.00 in0.0 mm 0.00 in0.0 mm
01:15 AM 59.5°F15.3°C 54.7°F12.6°C 84% 5.4 mph NNW8.7 kmh NNW 9.8 mph15.8 kmh 30.07 in1018.3 mb 0.00 in0.0 mm 0.00 in0.0 mm 0.00 in0.0 mm
01:30 AM 58.1°F14.5°C 54.3°F12.4°C 87% 2.2 mph N3.5 kmh N 11.4 mph18.3 kmh 30.08 in1018.6 mb 0.00 in0.0 mm 0.00 in0.0 mm 0.00 in0.0 mm
01:45 AM 56.8°F13.8°C 53.9°F12.2°C 90% 3.1 mph N5.0 kmh N 9.8 mph15.8 kmh 30.08 in1018.6 mb 0.00 in0.0 mm 0.00 in0.0 mm 0.00 in0.0 mm
02:00 AM 56.1°F13.4°C 54.1°F12.3°C 93% 3.1 mph N5.0 kmh N 6.9 mph11.1 kmh 30.08 in1018.6 mb 0.01 in0.3 mm 0.01 in0.3 mm 0.01 in0.3 mm
02:15 AM 55.8°F13.2°C 54.4°F12.4°C 95% 3.1 mph N5.0 kmh N 9.2 mph14.8 kmh 30.08 in1018.6 mb 0.04 in1.0 mm 0.12 in3.0 mm 0.04 in1.0 mm
02:30 AM 55.2°F12.9°C 54.7°F12.6°C 98% 0.7 mph NNE1.1 kmh NNE 6.0 mph9.7 kmh 30.07 in1018.3 mb 0.04 in1.0 mm 0.00 in0.0 mm 0.04 in1.0 mm
02:45 AM 54.9°F12.7°C 54.6°F12.6°C 99% 1.6 mph N2.6 kmh N 6.0 mph9.7 kmh 30.07 in1018.3 mb 0.05 in1.3 mm 0.04 in1.0 mm 0.05 in1.3 mm
03:00 AM 54.9°F12.7°C 54.6°F12.6°C 99% 2.2 mph N3.5 kmh N 7.6 mph12.2 kmh 30.07 in1018.3 mb 0.04 in1.0 mm 0.00 in0.0 mm 0.05 in1.3 mm
03:15 AM 54.7°F12.6°C 54.4°F12.4°C 99% 2.2 mph N3.5 kmh N 6.0 mph9.7 kmh 30.08 in1018.6 mb 0.04 in1.0 mm 0.00 in0.0 mm 0.07 in1.8 mm
03:30 AM 54.5°F12.5°C 54.2°F12.3°C 99% 0.7 mph N1.1 kmh N 4.5 mph7.2 kmh 30.07 in1018.3 mb 0.05 in1.3 mm 0.04 in1.0 mm 0.08 in2.0 mm
03:45 AM 54.5°F12.5°C 54.2°F12.3°C 99% Calm Calm 5.4 mph8.7 kmh 30.07 in1018.3 mb 0.06 in1.5 mm 0.04 in1.0 mm 0.11 in2.8 mm
04:00 AM 54.3°F12.4°C 54.1°F12.3°C 99% 1.6 mph NNW2.6 kmh NNW 5.4 mph8.7 kmh 30.08 in1018.6 mb 0.07 in1.8 mm 0.01 in0.3 mm 0.12 in3.0 mm
04:15 AM 54.1°F12.3°C 53.9°F12.2°C 99% 1.6 mph NNE2.6 kmh NNE 8.3 mph13.4 kmh 30.08 in1018.6 mb 0.07 in1.8 mm 0.00 in0.0 mm 0.14 in3.6 mm
04:30 AM 54.0°F12.2°C 53.7°F12.1°C 99% 1.6 mph N2.6 kmh N 6.9 mph11.1 kmh 30.08 in1018.6 mb 0.06 in1.5 mm 0.00 in0.0 mm 0.14 in3.6 mm
04:45 AM 53.8°F12.1°C 53.5°F11.9°C 99% 2.2 mph N3.5 kmh N 9.8 mph15.8 kmh 30.08 in1018.6 mb 0.04 in1.0 mm 0.00 in0.0 mm 0.14 in3.6 mm
05:00 AM 53.4°F11.9°C 53.2°F11.8°C 99% 7.6 mph N12.2 kmh N 13.0 mph20.9 kmh 30.09 in1019.0 mb 0.02 in0.5 mm 0.00 in0.0 mm 0.14 in3.6 mm
05:15 AM 53.4°F11.9°C 53.2°F11.8°C 99% 3.1 mph N5.0 kmh N 9.8 mph15.8 kmh 30.08 in1018.6 mb 0.00 in0.0 mm 0.00 in0.0 mm 0.14 in3.6 mm
05:30 AM 53.2°F11.8°C 53.0°F11.7°C 99% 1.6 mph N2.6 kmh N 6.9 mph11.1 kmh 30.08 in1018.6 mb 0.00 in0.0 mm 0.00 in0.0 mm 0.14 in3.6 mm
05:45 AM 52.2°F11.2°C 51.9°F11.1°C 99% 5.4 mph N8.7 kmh N 13.6 mph21.9 kmh 30.09 in1019.0 mb 0.01 in0.3 mm 0.04 in1.0 mm 0.15 in3.8 mm
06:00 AM 50.9°F10.5°C 50.6°F10.3°C 99% 2.2 mph N3.5 kmh N 16.8 mph27.0 kmh 30.09 in1019.0 mb 0.01 in0.3 mm 0.00 in0.0 mm 0.15 in3.8 mm
06:15 AM 50.0°F10.0°C 49.7°F9.8°C 99% 6.0 mph NNE9.7 kmh NNE 9.8 mph15.8 kmh 30.11 in1019.6 mb 0.01 in0.3 mm 0.00 in0.0 mm 0.15 in3.8 mm
06:30 AM 49.3°F9.6°C 49.0°F9.4°C 99% 4.5 mph NNE7.2 kmh NNE 13.6 mph21.9 kmh 30.11 in1019.6 mb 0.01 in0.3 mm 0.00 in0.0 mm 0.15 in3.8 mm
06:45 AM 48.6°F9.2°C 48.3°F9.1°C 99% 5.4 mph NNE8.7 kmh NNE 9.8 mph15.8 kmh 30.11 in1019.6 mb 0.00 in0.0 mm 0.00 in0.0 mm 0.15 in3.8 mm
07:00 AM 48.2°F9.0°C 47.9°F8.8°C 99% 1.6 mph NNE2.6 kmh NNE 13.0 mph20.9 kmh 30.12 in1020.0 mb 0.00 in0.0 mm 0.00 in0.0 mm 0.15 in3.8 mm
07:15 AM 48.0°F8.9°C 47.8°F8.8°C 99% 3.1 mph N5.0 kmh N 8.3 mph13.4 kmh 30.12 in1020.0 mb 0.00 in0.0 mm 0.00 in0.0 mm 0.15 in3.8 mm
07:30 AM 47.8°F8.8°C 47.6°F8.7°C 99% 6.0 mph N9.7 kmh N 11.4 mph18.3 kmh 30.13 in1020.3 mb 0.00 in0.0 mm 0.00 in0.0 mm 0.15 in3.8 mm
07:45 AM 47.5°F8.6°C 47.2°F8.4°C 99% 3.1 mph N5.0 kmh N 12.1 mph19.5 kmh 30.12 in1020.0 mb 0.00 in0.0 mm 0.00 in0.0 mm 0.15 in3.8 mm
08:00 AM 47.5°F8.6°C 47.2°F8.4°C 99% 3.8 mph N6.1 kmh N 10.7 mph17.2 kmh 30.13 in1020.3 mb 0.00 in0.0 mm 0.00 in0.0 mm 0.15 in3.8 mm
08:15 AM 47.5°F8.6°C 47.2°F8.4°C 99% 3.8 mph N6.1 kmh N 13.0 mph20.9 kmh 30.14 in1020.7 mb 0.00 in0.0 mm 0.00 in0.0 mm 0.15 in3.8 mm
08:30 AM 47.5°F8.6°C 47.2°F8.4°C 99% 3.8 mph NE6.1 kmh NE 15.9 mph25.6 kmh 30.13 in1020.3 mb 0.00 in0.0 mm 0.00 in0.0 mm 0.15 in3.8 mm
08:45 AM 47.7°F8.7°C 47.4°F8.6°C 99% 3.1 mph N5.0 kmh N 9.2 mph14.8 kmh 30.14 in1020.7 mb 0.00 in0.0 mm 0.00 in0.0 mm 0.15 in3.8 mm
09:00 AM 47.8°F8.8°C 47.3°F8.5°C 98% 3.1 mph NNE5.0 kmh NNE 12.1 mph19.5 kmh 30.15 in1021.0 mb 0.00 in0.0 mm 0.00 in0.0 mm 0.15 in3.8 mm
09:15 AM 47.8°F8.8°C 47.3°F8.5°C 98% 5.4 mph N8.7 kmh N 10.7 mph17.2 kmh 30.15 in1021.0 mb 0.00 in0.0 mm 0.00 in0.0 mm 0.15 in3.8 mm
09:30 AM 48.0°F8.9°C 47.2°F8.4°C 97% 3.8 mph NNE6.1 kmh NNE 9.2 mph14.8 kmh 30.14 in1020.7 mb 0.00 in0.0 mm 0.00 in0.0 mm 0.15 in3.8 mm
09:45 AM 48.0°F8.9°C 47.2°F8.4°C 97% 3.1 mph NNE5.0 kmh NNE 9.8 mph15.8 kmh 30.15 in1021.0 mb 0.00 in0.0 mm 0.00 in0.0 mm 0.15 in3.8 mm
10:00 AM 48.0°F8.9°C 46.9°F8.3°C 96% 3.1 mph N5.0 kmh N 10.7 mph17.2 kmh 30.15 in1021.0 mb 0.00 in0.0 mm 0.00 in0.0 mm 0.15 in3.8 mm
10:15 AM 47.8°F8.8°C 46.8°F8.2°C 96% 1.6 mph NNE2.6 kmh NNE 7.6 mph12.2 kmh 30.14 in1020.7 mb 0.00 in0.0 mm 0.00 in0.0 mm 0.15 in3.8 mm
10:30 AM 48.2°F9.0°C 47.4°F8.6°C 97% 5.4 mph N8.7 kmh N 12.1 mph19.5 kmh 30.14 in1020.7 mb 0.00 in0.0 mm 0.00 in0.0 mm 0.15 in3.8 mm
10:45 AM 48.7°F9.3°C 47.7°F8.7°C 96% 1.6 mph NNE2.6 kmh NNE 11.4 mph18.3 kmh 30.15 in1021.0 mb 0.00 in0.0 mm 0.00 in0.0 mm 0.15 in3.8 mm
11:00 AM 48.9°F9.4°C 47.6°F8.7°C 95% 2.2 mph N3.5 kmh N 10.7 mph17.2 kmh 30.14 in1020.7 mb 0.00 in0.0 mm 0.00 in0.0 mm 0.15 in3.8 mm
11:15 AM 49.1°F9.5°C 47.5°F8.6°C 94% 1.6 mph NE2.6 kmh NE 11.4 mph18.3 kmh 30.14 in1020.7 mb 0.00 in0.0 mm 0.00 in0.0 mm 0.15 in3.8 mm
11:30 AM 49.6°F9.8°C 48.0°F8.9°C 94% 2.2 mph NE3.5 kmh NE 9.8 mph15.8 kmh 30.13 in1020.3 mb 0.00 in0.0 mm 0.00 in0.0 mm 0.15 in3.8 mm
11:45 AM 50.4°F10.2°C 48.4°F9.1°C 93% 3.1 mph NNE5.0 kmh NNE 10.7 mph17.2 kmh 30.12 in1020.0 mb 0.00 in0.0 mm 0.00 in0.0 mm 0.15 in3.8 mm
12:00 PM 50.5°F10.3°C 48.3°F9.1°C 92% 4.5 mph NE7.2 kmh NE 8.3 mph13.4 kmh 30.12 in1020.0 mb 0.00 in0.0 mm 0.00 in0.0 mm 0.15 in3.8 mm
12:15 PM 50.7°F10.4°C 48.5°F9.2°C 92% 3.8 mph NE6.1 kmh NE 7.6 mph12.2 kmh 30.12 in1020.0 mb 0.00 in0.0 mm 0.00 in0.0 mm 0.15 in3.8 mm
12:30 PM 50.9°F10.5°C 48.7°F9.3°C 92% 2.2 mph NE3.5 kmh NE 5.4 mph8.7 kmh 30.11 in1019.6 mb 0.00 in0.0 mm 0.00 in0.0 mm 0.15 in3.8 mm
12:45 PM 51.3°F10.7°C 49.0°F9.4°C 92% 5.4 mph N8.7 kmh N 12.1 mph19.5 kmh 30.11 in1019.6 mb 0.00 in0.0 mm 0.00 in0.0 mm 0.15 in3.8 mm
01:00 PM 51.1°F10.6°C 48.8°F9.3°C 92% 4.5 mph N7.2 kmh N 12.1 mph19.5 kmh 30.12 in1020.0 mb 0.00 in0.0 mm 0.00 in0.0 mm 0.15 in3.8 mm
01:15 PM 51.4°F10.8°C 49.5°F9.7°C 93% 2.2 mph NNE3.5 kmh NNE 11.4 mph18.3 kmh 30.09 in1019.0 mb 0.00 in0.0 mm 0.00 in0.0 mm 0.15 in3.8 mm
01:30 PM 52.9°F11.6°C 50.3°F10.2°C 91% 3.8 mph NE6.1 kmh NE 9.8 mph15.8 kmh 30.07 in1018.3 mb 0.00 in0.0 mm 0.00 in0.0 mm 0.15 in3.8 mm
01:45 PM 53.4°F11.9°C 50.6°F10.3°C 90% 2.2 mph ENE3.5 kmh ENE 14.5 mph23.3 kmh 30.07 in1018.3 mb 0.00 in0.0 mm 0.00 in0.0 mm 0.15 in3.8 mm
02:00 PM 53.1°F11.7°C 49.9°F9.9°C 89% 3.1 mph NNE5.0 kmh NNE 13.6 mph21.9 kmh 30.05 in1017.6 mb 0.00 in0.0 mm 0.00 in0.0 mm 0.15 in3.8 mm
02:15 PM 52.7°F11.5°C 49.9°F9.9°C 90% 2.2 mph NE3.5 kmh NE 8.3 mph13.4 kmh 30.05 in1017.6 mb 0.00 in0.0 mm 0.00 in0.0 mm 0.15 in3.8 mm
02:30 PM 52.9°F11.6°C 50.3°F10.2°C 91% 3.1 mph N5.0 kmh N 9.2 mph14.8 kmh 30.04 in1017.3 mb 0.00 in0.0 mm 0.00 in0.0 mm 0.15 in3.8 mm
02:45 PM 52.5°F11.4°C 50.0°F10.0°C 91% 6.0 mph NE9.7 kmh NE 9.2 mph14.8 kmh 30.03 in1016.9 mb 0.00 in0.0 mm 0.00 in0.0 mm 0.15 in3.8 mm
03:00 PM 52.7°F11.5°C 50.4°F10.2°C 92% 3.1 mph NNE5.0 kmh NNE 9.2 mph14.8 kmh 30.01 in1016.3 mb 0.00 in0.0 mm 0.00 in0.0 mm 0.15 in3.8 mm
03:15 PM 53.6°F12.0°C 51.3°F10.7°C 92% 0.7 mph NE1.1 kmh NE 6.0 mph9.7 kmh 30.00 in1015.9 mb 0.00 in0.0 mm 0.00 in0.0 mm 0.15 in3.8 mm
03:30 PM 55.2°F12.9°C 52.3°F11.3°C 90% 4.5 mph ENE7.2 kmh ENE 9.8 mph15.8 kmh 30.00 in1015.9 mb 0.00 in0.0 mm 0.00 in0.0 mm 0.15 in3.8 mm
03:45 PM 55.0°F12.8°C 51.9°F11.1°C 89% 3.1 mph NE5.0 kmh NE 6.9 mph11.1 kmh 29.99 in1015.6 mb 0.00 in0.0 mm 0.00 in0.0 mm 0.15 in3.8 mm
04:00 PM 54.9°F12.7°C 51.7°F10.9°C 89% 1.6 mph NE2.6 kmh NE 7.6 mph12.2 kmh 29.99 in1015.6 mb 0.00 in0.0 mm 0.00 in0.0 mm 0.15 in3.8 mm
04:15 PM 54.7°F12.6°C 51.5°F10.8°C 89% 3.1 mph NE5.0 kmh NE 6.9 mph11.1 kmh 29.99 in1015.6 mb 0.00 in0.0 mm 0.00 in0.0 mm 0.15 in3.8 mm
04:30 PM 54.1°F12.3°C 51.0°F10.6°C 89% 2.2 mph NE3.5 kmh NE 6.9 mph11.1 kmh 29.98 in1015.2 mb 0.00 in0.0 mm 0.00 in0.0 mm 0.15 in3.8 mm
04:45 PM 53.8°F12.1°C 50.9°F10.5°C 90% 1.6 mph NE2.6 kmh NE 6.9 mph11.1 kmh 29.96 in1014.6 mb 0.00 in0.0 mm 0.00 in0.0 mm 0.15 in3.8 mm
05:00 PM 53.4°F11.9°C 50.6°F10.3°C 90% 1.6 mph NNE2.6 kmh NNE 6.0 mph9.7 kmh 29.97 in1014.9 mb 0.00 in0.0 mm 0.00 in0.0 mm 0.15 in3.8 mm
05:15 PM 53.1°F11.7°C 50.5°F10.3°C 91% 3.8 mph N6.1 kmh N 9.2 mph14.8 kmh 29.98 in1015.2 mb 0.00 in0.0 mm 0.00 in0.0 mm 0.15 in3.8 mm
05:30 PM 52.5°F11.4°C 50.0°F10.0°C 91% 4.5 mph N7.2 kmh N 9.8 mph15.8 kmh 29.98 in1015.2 mb 0.00 in0.0 mm 0.00 in0.0 mm 0.15 in3.8 mm
05:45 PM 51.4°F10.8°C 48.9°F9.4°C 91% 7.6 mph NNW12.2 kmh NNW 13.0 mph20.9 kmh 29.99 in1015.6 mb 0.00 in0.0 mm 0.00 in0.0 mm 0.15 in3.8 mm
06:00 PM 50.5°F10.3°C 48.0°F8.9°C 91% 4.5 mph NW7.2 kmh NW 14.5 mph23.3 kmh 30.02 in1016.6 mb 0.00 in0.0 mm 0.00 in0.0 mm 0.15 in3.8 mm
06:15 PM 48.2°F9.0°C 46.0°F7.8°C 92% 2.2 mph N3.5 kmh N 16.8 mph27.0 kmh 30.00 in1015.9 mb 0.00 in0.0 mm 0.00 in0.0 mm 0.15 in3.8 mm
06:30 PM 47.1°F8.4°C 45.5°F7.5°C 94% 3.1 mph NE5.0 kmh NE 10.7 mph17.2 kmh 29.98 in1015.2 mb 0.00 in0.0 mm 0.00 in0.0 mm 0.15 in3.8 mm
06:45 PM 46.9°F8.3°C 45.9°F7.7°C 96% 3.1 mph N5.0 kmh N 13.6 mph21.9 kmh 29.99 in1015.6 mb 0.00 in0.0 mm 0.00 in0.0 mm 0.15 in3.8 mm
07:00 PM 46.4°F8.0°C 45.6°F7.6°C 97% 3.1 mph NNE5.0 kmh NNE 13.0 mph20.9 kmh 29.99 in1015.6 mb 0.00 in0.0 mm 0.00 in0.0 mm 0.15 in3.8 mm
07:15 PM 45.9°F7.7°C 45.3°F7.4°C 98% 4.5 mph N7.2 kmh N 8.3 mph13.4 kmh 29.99 in1015.6 mb 0.00 in0.0 mm 0.00 in0.0 mm 0.15 in3.8 mm
07:30 PM 45.7°F7.6°C 45.4°F7.4°C 99% 2.2 mph N3.5 kmh N 10.7 mph17.2 kmh 30.00 in1015.9 mb 0.00 in0.0 mm 0.00 in0.0 mm 0.15 in3.8 mm
07:45 PM 45.3°F7.4°C 45.1°F7.3°C 99% 2.2 mph N3.5 kmh N 10.7 mph17.2 kmh 30.01 in1016.3 mb 0.00 in0.0 mm 0.00 in0.0 mm 0.15 in3.8 mm
08:00 PM 45.3°F7.4°C 45.1°F7.3°C 99% 4.5 mph N7.2 kmh N 11.4 mph18.3 kmh 30.01 in1016.3 mb 0.00 in0.0 mm 0.00 in0.0 mm 0.15 in3.8 mm
08:15 PM 45.1°F7.3°C 44.9°F7.2°C 99% 2.2 mph NNW3.5 kmh NNW 17.4 mph28.0 kmh 30.01 in1016.3 mb 0.00 in0.0 mm 0.00 in0.0 mm 0.15 in3.8 mm
08:30 PM 45.0°F7.2°C 44.7°F7.1°C 99% 4.5 mph N7.2 kmh N 15.9 mph25.6 kmh 30.02 in1016.6 mb 0.00 in0.0 mm 0.00 in0.0 mm 0.15 in3.8 mm
08:45 PM 44.8°F7.1°C 44.5°F6.9°C 99% 5.4 mph N8.7 kmh N 13.0 mph20.9 kmh 30.01 in1016.3 mb 0.00 in0.0 mm 0.00 in0.0 mm 0.15 in3.8 mm
09:00 PM 44.6°F7.0°C 44.3°F6.8°C 99% 5.4 mph N8.7 kmh N 13.6 mph21.9 kmh 30.02 in1016.6 mb 0.00 in0.0 mm 0.00 in0.0 mm 0.15 in3.8 mm
09:15 PM 44.2°F6.8°C 44.0°F6.7°C 99% 4.5 mph N7.2 kmh N 13.6 mph21.9 kmh 30.03 in1016.9 mb 0.00 in0.0 mm 0.00 in0.0 mm 0.15 in3.8 mm
09:30 PM 44.1°F6.7°C 43.8°F6.6°C 99% 4.5 mph N7.2 kmh N 13.0 mph20.9 kmh 30.03 in1016.9 mb 0.00 in0.0 mm 0.00 in0.0 mm 0.15 in3.8 mm
09:45 PM 43.9°F6.6°C 43.6°F6.4°C 99% 5.4 mph N8.7 kmh N 14.5 mph23.3 kmh 30.04 in1017.3 mb 0.00 in0.0 mm 0.00 in0.0 mm 0.15 in3.8 mm
10:00 PM 43.7°F6.5°C 43.4°F6.3°C 99% 3.8 mph N6.1 kmh N 12.1 mph19.5 kmh 30.03 in1016.9 mb 0.00 in0.0 mm 0.00 in0.0 mm 0.15 in3.8 mm
10:15 PM 43.7°F6.5°C 43.4°F6.3°C 99% 7.6 mph N12.2 kmh N 13.6 mph21.9 kmh 30.04 in1017.3 mb 0.00 in0.0 mm 0.00 in0.0 mm 0.15 in3.8 mm
10:30 PM 43.2°F6.2°C 42.9°F6.1°C 99% 4.5 mph N7.2 kmh N 13.6 mph21.9 kmh 30.04 in1017.3 mb 0.00 in0.0 mm 0.00 in0.0 mm 0.15 in3.8 mm
10:45 PM 42.8°F6.0°C 42.5°F5.8°C 99% 6.9 mph N11.1 kmh N 17.4 mph28.0 kmh 30.04 in1017.3 mb 0.00 in0.0 mm 0.00 in0.0 mm 0.15 in3.8 mm
11:00 PM 42.4°F5.8°C 42.2°F5.7°C 99% 5.4 mph N8.7 kmh N 13.6 mph21.9 kmh 30.05 in1017.6 mb 0.00 in0.0 mm 0.00 in0.0 mm 0.15 in3.8 mm
11:15 PM 42.3°F5.7°C 42.0°F5.6°C 99% 5.4 mph N8.7 kmh N 13.0 mph20.9 kmh 30.04 in1017.3 mb 0.00 in0.0 mm 0.00 in0.0 mm 0.15 in3.8 mm
11:30 PM 41.9°F5.5°C 41.6°F5.3°C 99% 5.4 mph N8.7 kmh N 15.2 mph24.5 kmh 30.05 in1017.6 mb 0.00 in0.0 mm 0.00 in0.0 mm 0.15 in3.8 mm
11:45 PM 41.7°F5.4°C 41.5°F5.3°C 99% 3.1 mph N5.0 kmh N 13.0 mph20.9 kmh 30.04 in1017.3 mb 0.00 in0.0 mm 0.00 in0.0 mm 0.15 in3.8 mm